Time,TemperatureF,DewpointF,PressureIn,WindDirection,WindDirectionDegrees,WindSpeedMPH,WindSpeedGustMPH,Humidity,HourlyPrecipIn,Conditions,Clouds,dailyrainin,SolarRadiationWatts/m^2,SoftwareType,DateUTC
2013-06-02 00:00:00,50.0,29.0,-100.00,ESE,106,2.0,3.0,43,-99.99,,,-99.99,0.000000,,2013-06-02 06:00:00,
2013-06-02 00:52:00,50.0,29.0,-100.00,ESE,106,2.0,3.0,43,-99.99,,,-99.99,0.000000,,2013-06-02 06:52:00,
2013-06-02 02:00:00,48.0,27.0,-100.00,SE,129,3.0,4.0,44,-99.99,,,-99.99,0.000000,,2013-06-02 08:00:00,
2013-06-02 02:52:00,48.0,27.0,-100.00,SE,129,3.0,4.0,44,-99.99,,,-99.99,0.000000,,2013-06-02 08:52:00,
2013-06-02 03:00:00,49.0,25.0,-100.00,SE,140,3.0,5.0,39,-99.99,,,-99.99,0.000000,,2013-06-02 09:00:00,
2013-06-02 03:53:00,49.0,25.0,-100.00,SE,140,3.0,5.0,39,-99.99,,,-99.99,0.000000,,2013-06-02 09:53:00,
2013-06-02 04:00:00,48.0,25.0,-100.00,SE,127,3.0,4.0,41,-99.99,,,-99.99,0.000000,,2013-06-02 10:00:00,
2013-06-02 04:52:00,48.0,25.0,-100.00,SE,127,3.0,4.0,41,-99.99,,,-99.99,0.000000,,2013-06-02 10:52:00,
2013-06-02 05:00:00,45.0,27.0,-100.00,SE,131,3.0,7.0,50,-99.99,,,-99.99,0.000000,,2013-06-02 11:00:00,
2013-06-02 05:52:00,45.0,27.0,-100.00,SE,131,3.0,7.0,50,-99.99,,,-99.99,0.000000,,2013-06-02 11:52:00,
2013-06-02 06:00:00,44.0,29.0,-100.00,SE,139,4.0,5.0,55,-99.99,,,-99.99,0.560000,,2013-06-02 12:00:00,
2013-06-02 06:52:00,44.0,29.0,-100.00,SE,139,4.0,5.0,55,-99.99,,,-99.99,0.560000,,2013-06-02 12:52:00,
2013-06-02 07:00:00,50.0,29.0,-100.00,SE,130,3.0,6.0,45,-99.99,,,-99.99,51.689999,,2013-06-02 13:00:00,
2013-06-02 07:52:00,50.0,29.0,-100.00,SE,130,3.0,6.0,45,-99.99,,,-99.99,51.689999,,2013-06-02 13:52:00,
2013-06-02 08:00:00,62.0,24.0,-100.00,SE,140,2.0,6.0,23,-99.99,,,-99.99,227.899994,,2013-06-02 14:00:00,
2013-06-02 08:52:00,62.0,24.0,-100.00,SE,140,2.0,6.0,23,-99.99,,,-99.99,227.899994,,2013-06-02 14:52:00,
2013-06-02 09:00:00,66.0,25.0,-100.00,South,185,4.0,4.0,21,-99.99,,,-99.99,422.399994,,2013-06-02 15:00:00,
2013-06-02 09:53:00,66.0,25.0,-100.00,South,185,4.0,4.0,21,-99.99,,,-99.99,422.399994,,2013-06-02 15:53:00,
2013-06-02 10:00:00,72.0,22.0,-100.00,South,183,3.0,8.0,15,-99.99,,,-99.99,613.700012,,2013-06-02 16:00:00,
2013-06-02 10:52:00,72.0,22.0,-100.00,South,183,3.0,8.0,15,-99.99,,,-99.99,613.700012,,2013-06-02 16:52:00,
2013-06-02 11:00:00,76.0,23.0,-100.00,SSW,194,5.0,7.0,14,-99.99,,,-99.99,784.000000,,2013-06-02 17:00:00,
2013-06-02 11:52:00,76.0,23.0,-100.00,SSW,194,5.0,7.0,14,-99.99,,,-99.99,784.000000,,2013-06-02 17:52:00,
2013-06-02 12:00:00,81.0,22.0,-100.00,SSW,200,6.0,11.0,11,-99.99,,,-99.99,916.000000,,2013-06-02 18:00:00,
2013-06-02 12:52:00,81.0,22.0,-100.00,SSW,200,6.0,11.0,11,-99.99,,,-99.99,916.000000,,2013-06-02 18:52:00,
2013-06-02 13:00:00,84.0,21.0,-100.00,SSW,199,7.0,12.0,10,-99.99,,,-99.99,994.000000,,2013-06-02 19:00:00,
2013-06-02 13:52:00,84.0,21.0,-100.00,SSW,199,7.0,12.0,10,-99.99,,,-99.99,994.000000,,2013-06-02 19:52:00,
2013-06-02 14:00:00,86.0,20.0,-100.00,SW,215,10.0,16.0,9,-99.99,,,-99.99,1019.000000,,2013-06-02 20:00:00,
2013-06-02 14:52:00,86.0,20.0,-100.00,SW,215,10.0,16.0,9,-99.99,,,-99.99,1019.000000,,2013-06-02 20:52:00,
2013-06-02 15:00:00,87.0,16.0,-100.00,SW,215,9.0,19.0,7,-99.99,,,-99.99,988.000000,,2013-06-02 21:00:00,
2013-06-02 15:53:00,87.0,16.0,-100.00,SW,215,9.0,19.0,7,-99.99,,,-99.99,988.000000,,2013-06-02 21:53:00,
2013-06-02 16:00:00,89.0,17.0,-100.00,SW,236,8.0,20.0,7,-99.99,,,-99.99,901.000000,,2013-06-02 22:00:00,
2013-06-02 16:52:00,89.0,17.0,-100.00,SW,236,8.0,20.0,7,-99.99,,,-99.99,901.000000,,2013-06-02 22:52:00,
2013-06-02 17:00:00,88.0,16.0,-100.00,SW,227,8.0,21.0,7,-99.99,,,-99.99,758.299988,,2013-06-02 23:00:00,
2013-06-02 17:52:00,88.0,16.0,-100.00,SW,227,8.0,21.0,7,-99.99,,,-99.99,758.299988,,2013-06-02 23:52:00,
2013-06-02 18:00:00,88.0,13.0,-100.00,SSW,207,9.0,-999.0,6,-99.99,,,-99.99,632.599976,,2013-06-03 00:00:00,
2013-06-02 18:52:00,88.0,13.0,-100.00,SSW,207,9.0,-999.0,6,-99.99,,,-99.99,632.599976,,2013-06-03 00:52:00,
2013-06-02 19:00:00,86.0,18.0,-100.00,SW,217,14.0,-999.0,8,-99.99,,,-99.99,385.799988,,2013-06-03 01:00:00,
2013-06-02 19:52:00,86.0,18.0,-100.00,SW,217,14.0,-999.0,8,-99.99,,,-99.99,385.799988,,2013-06-03 01:52:00,
2013-06-02 20:00:00,83.0,18.0,-100.00,SSW,203,11.0,27.0,9,-99.99,,,-99.99,190.699997,,2013-06-03 02:00:00,
2013-06-02 20:52:00,83.0,18.0,-100.00,SSW,203,11.0,27.0,9,-99.99,,,-99.99,190.699997,,2013-06-03 02:52:00,
2013-06-02 21:00:00,71.0,19.0,-100.00,South,178,6.0,19.0,14,-99.99,,,-99.99,31.309999,,2013-06-03 03:00:00,
2013-06-02 21:53:00,71.0,19.0,-100.00,South,178,6.0,19.0,14,-99.99,,,-99.99,31.309999,,2013-06-03 03:53:00,
2013-06-02 23:00:00,67.0,16.0,-100.00,SSE,163,6.0,7.0,14,-99.99,,,-99.99,0.100000,,2013-06-03 05:00:00,
2013-06-02 23:52:00,67.0,16.0,-100.00,SSE,163,6.0,7.0,14,-99.99,,,-99.99,0.100000,,2013-06-03 05:52:00,